Time;durP1;ratioP1;P1;durP2;ratioP2;P2;SDS_P1;SDS_P2;PMS_P1;PMS_P2;Temp;Humidity;BMP_temperature;BMP_pressure;BME280_temperature;BME280_humidity;BME280_pressure;Samples;Min_cycle;Max_cycle;Signal;HPM_P1;HPM_P2
2021/10/19 00:02:12;;;;;;;243.20;229.83;;;;;;;;;;5053889;28;20468;-69
2021/10/19 00:04:39;;;;;;;255.20;241.13;;;;;;;;;;5052940;28;20470;-69
2021/10/19 00:07:06;;;;;;;252.57;238.70;;;;;;;;;;5054254;28;20448;-69
2021/10/19 00:09:33;;;;;;;264.30;250.00;;;;;;;;;;5055196;28;20444;-68
2021/10/19 00:12:01;;;;;;;276.70;261.83;;;;;;;;;;5053753;28;20558;-68
2021/10/19 00:14:28;;;;;;;276.60;261.97;;;;;;;;;;5061857;28;20454;-69
2021/10/19 00:16:56;;;;;;;264.67;250.57;;;;;;;;;;5072374;28;20850;-68
2021/10/19 00:19:23;;;;;;;281.10;266.57;;;;;;;;;;5062912;28;20464;-69
2021/10/19 00:21:50;;;;;;;283.53;268.93;;;;;;;;;;5051971;28;20848;-68
2021/10/19 00:24:17;;;;;;;274.03;259.33;;;;;;;;;;5052380;28;20448;-69
2021/10/19 00:26:44;;;;;;;275.43;260.87;;;;;;;;;;5051175;28;20938;-69
2021/10/19 00:29:12;;;;;;;281.30;266.40;;;;;;;;;;5050273;28;20440;-69
2021/10/19 00:31:39;;;;;;;281.30;266.40;;;;;;;;;;5052476;28;20484;-69
2021/10/19 00:34:06;;;;;;;283.23;268.20;;;;;;;;;;5053727;28;20436;-69
2021/10/19 00:36:34;;;;;;;282.33;267.43;;;;;;;;;;5053361;28;20479;-69
2021/10/19 00:39:01;;;;;;;280.87;266.17;;;;;;;;;;5051195;28;20957;-69
2021/10/19 00:41:29;;;;;;;282.40;267.80;;;;;;;;;;5034832;28;20478;-68
2021/10/19 00:43:56;;;;;;;283.20;268.10;;;;;;;;;;5036336;28;20481;-68
2021/10/19 00:46:25;;;;;;;286.07;271.07;;;;;;;;;;5033518;28;20448;-69
2021/10/19 00:48:52;;;;;;;285.43;270.50;;;;;;;;;;5047642;28;20454;-69
2021/10/19 00:51:20;;;;;;;286.77;271.70;;;;;;;;;;5051961;28;20507;-69
2021/10/19 00:53:47;;;;;;;280.57;265.47;;;;;;;;;;5050940;28;20455;-69
2021/10/19 00:56:14;;;;;;;281.27;266.17;;;;;;;;;;5038180;28;20458;-69
2021/10/19 00:58:42;;;;;;;283.17;268.10;;;;;;;;;;5052878;28;20448;-69
2021/10/19 01:01:09;;;;;;;290.60;275.50;;;;;;;;;;5052467;28;20998;-69
2021/10/19 01:03:38;;;;;;;283.20;268.00;;;;;;;;;;5052146;28;20466;-70
2021/10/19 01:06:07;;;;;;;289.93;274.57;;;;;;;;;;5051775;28;20452;-69
2021/10/19 01:08:34;;;;;;;290.83;275.73;;;;;;;;;;5051720;28;20448;-69
2021/10/19 01:11:01;;;;;;;289.87;274.47;;;;;;;;;;5052376;28;20490;-69
2021/10/19 01:13:30;;;;;;;286.60;271.67;;;;;;;;;;5052816;28;20947;-69
2021/10/19 01:16:03;;;;;;;281.67;266.90;;;;;;;;;;5074225;28;20454;-68
2021/10/19 01:18:30;;;;;;;278.67;263.97;;;;;;;;;;5060251;28;20432;-69
2021/10/19 01:20:59;;;;;;;278.60;263.70;;;;;;;;;;5051659;28;20464;-69
2021/10/19 01:23:26;;;;;;;276.10;261.70;;;;;;;;;;5051749;28;20440;-69
2021/10/19 01:25:53;;;;;;;281.37;266.83;;;;;;;;;;5050621;28;20440;-68
2021/10/19 01:28:20;;;;;;;289.30;274.00;;;;;;;;;;5044319;28;20962;-69
2021/10/19 01:30:48;;;;;;;296.40;280.50;;;;;;;;;;5040569;28;20989;-69
2021/10/19 01:33:16;;;;;;;296.63;280.87;;;;;;;;;;5052653;28;20958;-69
2021/10/19 01:35:43;;;;;;;302.93;286.97;;;;;;;;;;5054954;28;20931;-69
2021/10/19 01:38:13;;;;;;;302.13;286.43;;;;;;;;;;5054720;28;20479;-69
2021/10/19 01:40:41;;;;;;;302.67;286.67;;;;;;;;;;5054281;28;20454;-68
2021/10/19 01:43:09;;;;;;;302.00;285.67;;;;;;;;;;5054903;28;20458;-68
2021/10/19 01:45:36;;;;;;;301.80;286.03;;;;;;;;;;5054801;28;20818;-69
2021/10/19 01:48:04;;;;;;;302.43;286.27;;;;;;;;;;5054626;28;20451;-68
2021/10/19 01:50:31;;;;;;;301.07;285.00;;;;;;;;;;5054913;28;20456;-68
2021/10/19 01:52:58;;;;;;;305.33;288.90;;;;;;;;;;5054654;28;20444;-68
2021/10/19 01:55:27;;;;;;;307.23;290.97;;;;;;;;;;5054713;28;20450;-68
2021/10/19 01:57:54;;;;;;;299.07;283.57;;;;;;;;;;5054419;28;20486;-69
2021/10/19 02:00:21;;;;;;;298.63;283.00;;;;;;;;;;5054947;28;20446;-68
2021/10/19 02:02:48;;;;;;;306.13;290.17;;;;;;;;;;5054825;28;20472;-69
2021/10/19 02:05:15;;;;;;;303.53;287.70;;;;;;;;;;5050641;28;20457;-69
2021/10/19 02:07:42;;;;;;;307.40;291.57;;;;;;;;;;5054373;28;20447;-70
2021/10/19 02:10:11;;;;;;;309.90;293.90;;;;;;;;;;5054637;28;20462;-70
2021/10/19 02:12:40;;;;;;;309.77;293.67;;;;;;;;;;5054916;28;20475;-69
2021/10/19 02:15:09;;;;;;;309.80;293.50;;;;;;;;;;5036215;28;20453;-69
2021/10/19 02:17:36;;;;;;;314.93;298.53;;;;;;;;;;5037066;28;20481;-69
2021/10/19 02:20:03;;;;;;;315.83;299.37;;;;;;;;;;5050894;28;20451;-69
2021/10/19 02:22:30;;;;;;;308.30;292.20;;;;;;;;;;5053562;28;20935;-68
2021/10/19 02:24:57;;;;;;;307.03;290.73;;;;;;;;;;5053520;28;21003;-68
2021/10/19 02:27:24;;;;;;;309.40;293.10;;;;;;;;;;5054326;28;20451;-68
2021/10/19 02:29:53;;;;;;;299.50;283.93;;;;;;;;;;5067161;28;20462;-69
2021/10/19 02:32:20;;;;;;;296.77;281.30;;;;;;;;;;5058732;28;20488;-68
2021/10/19 02:34:47;;;;;;;310.07;294.03;;;;;;;;;;5053336;28;20968;-69
2021/10/19 02:37:14;;;;;;;297.43;281.90;;;;;;;;;;5053500;28;20480;-69
2021/10/19 02:39:41;;;;;;;293.70;277.93;;;;;;;;;;5054145;28;20455;-69
2021/10/19 02:42:08;;;;;;;292.30;276.80;;;;;;;;;;5053367;28;20471;-68
2021/10/19 02:44:36;;;;;;;291.13;275.43;;;;;;;;;;5052255;28;20914;-69
2021/10/19 02:47:04;;;;;;;285.00;269.60;;;;;;;;;;5045134;28;20449;-69
2021/10/19 02:49:31;;;;;;;301.70;285.73;;;;;;;;;;5033783;28;20467;-69
2021/10/19 02:51:58;;;;;;;297.40;281.70;;;;;;;;;;5042250;28;20479;-68
2021/10/19 02:54:25;;;;;;;290.47;275.07;;;;;;;;;;5053312;28;20458;-69
2021/10/19 02:56:53;;;;;;;288.17;272.57;;;;;;;;;;5053242;28;20814;-68
2021/10/19 02:59:20;;;;;;;300.97;285.03;;;;;;;;;;5053380;28;20460;-68
2021/10/19 03:01:47;;;;;;;306.27;289.70;;;;;;;;;;5053206;28;20468;-68
2021/10/19 03:04:15;;;;;;;314.07;297.50;;;;;;;;;;5053033;28;20459;-69
2021/10/19 03:06:42;;;;;;;304.80;288.50;;;;;;;;;;5056577;28;20477;-69
2021/10/19 03:09:09;;;;;;;298.30;282.30;;;;;;;;;;5061146;28;20456;-69
2021/10/19 03:11:37;;;;;;;297.10;280.97;;;;;;;;;;5053084;28;20475;-66
2021/10/19 03:14:04;;;;;;;299.00;282.70;;;;;;;;;;5053255;28;20455;-69
2021/10/19 03:16:31;;;;;;;296.27;279.83;;;;;;;;;;5033146;28;20453;-69
2021/10/19 03:18:58;;;;;;;292.47;276.40;;;;;;;;;;5033160;28;20484;-68
2021/10/19 03:21:27;;;;;;;290.87;274.90;;;;;;;;;;5070467;28;20467;-69
2021/10/19 03:23:54;;;;;;;297.80;281.27;;;;;;;;;;5063252;28;20444;-69
2021/10/19 03:26:21;;;;;;;275.53;259.93;;;;;;;;;;5052513;28;20460;-69
2021/10/19 03:28:48;;;;;;;275.77;260.40;;;;;;;;;;5053370;28;20444;-69
2021/10/19 03:31:15;;;;;;;281.40;265.60;;;;;;;;;;5052772;28;20478;-69
2021/10/19 03:33:42;;;;;;;287.13;271.20;;;;;;;;;;5052493;28;20464;-69
2021/10/19 03:36:09;;;;;;;266.40;251.30;;;;;;;;;;5052587;28;20448;-69
2021/10/19 03:38:39;;;;;;;276.17;260.37;;;;;;;;;;5052336;28;20479;-69
2021/10/19 03:41:06;;;;;;;282.97;267.13;;;;;;;;;;5052646;28;20997;-68
2021/10/19 03:43:33;;;;;;;292.33;275.53;;;;;;;;;;5052733;28;20446;-69
2021/10/19 03:46:00;;;;;;;283.77;267.53;;;;;;;;;;5052041;28;20448;-69
2021/10/19 03:48:27;;;;;;;288.07;271.93;;;;;;;;;;5052834;28;20455;-69
2021/10/19 03:50:55;;;;;;;298.83;282.27;;;;;;;;;;5053055;28;20476;-68
2021/10/19 03:53:23;;;;;;;301.47;284.33;;;;;;;;;;5052979;28;20452;-69
2021/10/19 03:55:52;;;;;;;300.70;283.10;;;;;;;;;;5054188;28;20471;-69
2021/10/19 03:58:19;;;;;;;303.97;286.80;;;;;;;;;;5052433;28;20487;-69
2021/10/19 04:00:46;;;;;;;308.50;290.93;;;;;;;;;;5051840;28;20463;-68
2021/10/19 04:03:13;;;;;;;306.00;288.70;;;;;;;;;;5052506;28;20455;-69
2021/10/19 04:05:41;;;;;;;305.33;287.70;;;;;;;;;;5051870;28;20466;-69
2021/10/19 04:08:08;;;;;;;279.60;263.30;;;;;;;;;;5052749;28;20544;-69
2021/10/19 04:10:35;;;;;;;249.83;234.60;;;;;;;;;;5050430;28;20954;-69
2021/10/19 04:13:04;;;;;;;262.83;246.67;;;;;;;;;;5052071;28;20480;-70
2021/10/19 04:15:31;;;;;;;269.50;252.90;;;;;;;;;;5051889;28;20463;-70
2021/10/19 04:17:58;;;;;;;277.23;260.63;;;;;;;;;;5052112;28;21024;-70
2021/10/19 04:20:25;;;;;;;267.20;250.50;;;;;;;;;;5052602;28;20448;-70
2021/10/19 04:22:52;;;;;;;277.43;260.43;;;;;;;;;;5052362;28;20474;-69
2021/10/19 04:25:19;;;;;;;272.53;255.53;;;;;;;;;;5051455;28;20463;-70
2021/10/19 04:27:47;;;;;;;256.77;240.07;;;;;;;;;;5051857;28;20927;-70
2021/10/19 04:30:15;;;;;;;254.87;238.07;;;;;;;;;;5039776;28;20449;-70
2021/10/19 04:32:42;;;;;;;260.10;242.77;;;;;;;;;;5032385;28;20480;-71
2021/10/19 04:35:10;;;;;;;275.67;258.50;;;;;;;;;;5032008;28;20832;-71
2021/10/19 04:37:37;;;;;;;278.33;261.00;;;;;;;;;;5032008;28;20848;-70
2021/10/19 04:40:04;;;;;;;266.47;249.23;;;;;;;;;;5048068;28;20477;-71
2021/10/19 04:42:33;;;;;;;256.40;239.00;;;;;;;;;;5051455;28;20467;-70
2021/10/19 04:45:00;;;;;;;260.30;243.10;;;;;;;;;;5050941;28;20972;-70
2021/10/19 04:47:30;;;;;;;275.33;257.50;;;;;;;;;;5051970;28;20939;-70
2021/10/19 04:49:58;;;;;;;267.30;250.00;;;;;;;;;;5051430;28;20448;-69
2021/10/19 04:52:25;;;;;;;253.60;236.80;;;;;;;;;;5051706;28;20507;-68
2021/10/19 04:54:52;;;;;;;276.20;258.43;;;;;;;;;;5050926;28;20505;-68
2021/10/19 04:57:20;;;;;;;263.40;246.07;;;;;;;;;;5051943;28;20447;-68
2021/10/19 04:59:47;;;;;;;264.27;247.23;;;;;;;;;;5051197;28;20969;-69
2021/10/19 05:02:14;;;;;;;276.87;259.17;;;;;;;;;;5051772;28;20464;-69
2021/10/19 05:04:42;;;;;;;268.90;251.40;;;;;;;;;;5051196;28;20451;-69
2021/10/19 05:07:09;;;;;;;279.10;261.20;;;;;;;;;;5051484;28;20470;-69
2021/10/19 05:09:36;;;;;;;286.60;268.60;;;;;;;;;;5055268;28;20450;-70
2021/10/19 05:12:04;;;;;;;396.07;366.03;;;;;;;;;;5054042;28;20460;-68
2021/10/19 05:14:31;;;;;;;311.17;292.90;;;;;;;;;;5044460;28;20444;-69
2021/10/19 05:16:58;;;;;;;266.07;248.17;;;;;;;;;;5055344;28;20439;-67
2021/10/19 05:19:25;;;;;;;258.20;240.07;;;;;;;;;;5054916;28;20490;-68
2021/10/19 05:21:53;;;;;;;253.80;235.80;;;;;;;;;;5055161;28;21016;-68
2021/10/19 05:24:21;;;;;;;251.13;234.00;;;;;;;;;;5055008;28;20456;-68
2021/10/19 05:26:48;;;;;;;244.33;227.57;;;;;;;;;;5055124;28;20939;-69
2021/10/19 05:29:15;;;;;;;240.03;223.03;;;;;;;;;;5055220;28;20440;-69
2021/10/19 05:31:42;;;;;;;245.20;228.30;;;;;;;;;;5055280;28;20476;-68
2021/10/19 05:34:09;;;;;;;238.60;221.90;;;;;;;;;;5054652;28;20836;-68
2021/10/19 05:36:36;;;;;;;236.83;220.03;;;;;;;;;;5055384;28;20455;-69
2021/10/19 05:39:05;;;;;;;259.83;242.20;;;;;;;;;;5054010;28;20475;-69
2021/10/19 05:41:32;;;;;;;285.50;267.80;;;;;;;;;;5054852;28;20468;-69
2021/10/19 05:43:59;;;;;;;266.23;248.37;;;;;;;;;;5055002;28;20469;-69
2021/10/19 05:46:26;;;;;;;265.50;247.60;;;;;;;;;;5055040;28;20483;-69
2021/10/19 05:48:54;;;;;;;273.07;254.90;;;;;;;;;;5054737;28;20538;-69
2021/10/19 05:51:21;;;;;;;304.67;286.17;;;;;;;;;;5054585;28;20567;-69
2021/10/19 05:53:48;;;;;;;275.13;256.63;;;;;;;;;;5055174;28;20448;-69
2021/10/19 05:56:17;;;;;;;273.63;255.60;;;;;;;;;;5054254;28;20951;-68
2021/10/19 05:58:44;;;;;;;274.90;256.90;;;;;;;;;;5054936;28;20668;-69
2021/10/19 06:01:11;;;;;;;281.57;263.57;;;;;;;;;;5052924;28;20467;-69
2021/10/19 06:03:39;;;;;;;298.30;279.40;;;;;;;;;;5054049;28;20448;-69
2021/10/19 06:06:08;;;;;;;283.13;264.73;;;;;;;;;;5054602;28;20452;-68
2021/10/19 06:08:35;;;;;;;213.50;198.37;;;;;;;;;;5054131;28;20827;-68
2021/10/19 06:11:03;;;;;;;209.27;194.97;;;;;;;;;;5045066;28;20485;-68
2021/10/19 06:13:31;;;;;;;219.20;202.07;;;;;;;;;;5042560;28;20467;-65
2021/10/19 06:15:58;;;;;;;303.47;282.07;;;;;;;;;;5050466;28;20439;-65
2021/10/19 06:18:26;;;;;;;420.77;393.07;;;;;;;;;;5050510;28;20511;-65
2021/10/19 06:20:53;;;;;;;549.10;515.93;;;;;;;;;;5053115;28;20491;-65
2021/10/19 06:23:20;;;;;;;604.37;568.20;;;;;;;;;;5054103;28;20966;-65
2021/10/19 06:25:48;;;;;;;610.17;572.60;;;;;;;;;;5051796;28;20507;-66
2021/10/19 06:28:15;;;;;;;580.83;544.43;;;;;;;;;;5044711;28;20463;-65
2021/10/19 06:30:43;;;;;;;554.53;518.40;;;;;;;;;;5049312;28;20466;-65
2021/10/19 06:33:10;;;;;;;498.93;465.73;;;;;;;;;;5052746;28;20459;-65
2021/10/19 06:35:40;;;;;;;450.43;420.93;;;;;;;;;;5052831;28;20470;-65
2021/10/19 06:38:07;;;;;;;445.10;416.20;;;;;;;;;;5053811;28;20487;-65
2021/10/19 06:40:34;;;;;;;420.67;392.53;;;;;;;;;;5052004;28;20471;-65
2021/10/19 06:43:03;;;;;;;379.33;353.33;;;;;;;;;;5052019;28;20982;-65
2021/10/19 06:45:30;;;;;;;455.73;429.10;;;;;;;;;;5037140;28;21075;-65
2021/10/19 06:47:58;;;;;;;399.30;374.67;;;;;;;;;;5054165;28;20455;-66
2021/10/19 06:50:26;;;;;;;411.93;388.73;;;;;;;;;;5051288;28;20474;-65
2021/10/19 06:52:53;;;;;;;399.07;377.87;;;;;;;;;;5052815;28;20562;-66
2021/10/19 06:55:22;;;;;;;399.47;379.50;;;;;;;;;;5049841;28;20820;-66
2021/10/19 06:57:49;;;;;;;391.67;373.10;;;;;;;;;;5053402;28;20961;-65
2021/10/19 07:00:18;;;;;;;355.37;338.57;;;;;;;;;;5053187;28;20480;-66
2021/10/19 07:02:45;;;;;;;345.60;329.47;;;;;;;;;;5052765;28;20490;-63
2021/10/19 07:05:14;;;;;;;321.63;306.77;;;;;;;;;;5052330;28;20486;-65
2021/10/19 07:07:42;;;;;;;297.17;283.50;;;;;;;;;;5051371;28;20488;-66
2021/10/19 07:10:09;;;;;;;269.70;257.50;;;;;;;;;;5047435;28;20471;-65
2021/10/19 07:12:39;;;;;;;280.67;268.00;;;;;;;;;;5043298;28;20488;-65
2021/10/19 07:15:08;;;;;;;248.63;237.23;;;;;;;;;;5050883;28;20479;-66
2021/10/19 07:17:37;;;;;;;218.93;208.67;;;;;;;;;;5053112;28;20498;-65
2021/10/19 07:20:04;;;;;;;236.83;226.30;;;;;;;;;;5052211;28;20479;-65
2021/10/19 07:22:33;;;;;;;208.63;198.73;;;;;;;;;;5052156;28;20514;-65
2021/10/19 07:25:01;;;;;;;384.93;363.70;;;;;;;;;;5052867;28;20519;-68
2021/10/19 07:27:28;;;;;;;355.43;338.83;;;;;;;;;;5045270;28;20522;-68
2021/10/19 07:29:55;;;;;;;359.83;342.60;;;;;;;;;;5049530;28;20463;-68
2021/10/19 07:32:22;;;;;;;334.53;319.27;;;;;;;;;;5051656;28;20491;-67
2021/10/19 07:34:49;;;;;;;431.37;409.77;;;;;;;;;;5051098;28;20459;-66
2021/10/19 07:37:16;;;;;;;382.53;364.53;;;;;;;;;;5048274;28;20951;-66
2021/10/19 07:39:45;;;;;;;342.83;327.23;;;;;;;;;;5034538;28;20488;-65
2021/10/19 07:42:12;;;;;;;308.37;294.37;;;;;;;;;;5047835;28;20488;-65
2021/10/19 07:44:40;;;;;;;383.37;365.37;;;;;;;;;;5052463;28;20456;-61
2021/10/19 07:47:07;;;;;;;412.87;389.37;;;;;;;;;;5051637;28;20816;-62
2021/10/19 07:49:34;;;;;;;435.40;410.87;;;;;;;;;;5051059;28;20467;-62
2021/10/19 07:52:01;;;;;;;411.23;388.37;;;;;;;;;;5051549;28;20877;-62
2021/10/19 07:54:29;;;;;;;413.50;390.97;;;;;;;;;;5052366;28;20452;-62
2021/10/19 07:56:57;;;;;;;412.73;391.43;;;;;;;;;;5049515;28;20533;-62
2021/10/19 07:59:24;;;;;;;388.00;366.13;;;;;;;;;;5052931;28;20487;-62
2021/10/19 08:01:51;;;;;;;409.50;388.30;;;;;;;;;;5051078;28;20483;-62
2021/10/19 08:04:19;;;;;;;415.20;393.93;;;;;;;;;;5050459;28;20494;-62
2021/10/19 08:06:46;;;;;;;393.70;373.00;;;;;;;;;;5050742;28;20492;-62
2021/10/19 08:09:13;;;;;;;411.70;390.80;;;;;;;;;;5051175;28;20474;-61
2021/10/19 08:11:40;;;;;;;407.00;387.40;;;;;;;;;;5045272;28;20490;-62
2021/10/19 08:14:08;;;;;;;427.57;404.17;;;;;;;;;;5050188;28;20471;-62
2021/10/19 08:16:35;;;;;;;406.77;386.17;;;;;;;;;;5052488;28;20450;-62
2021/10/19 08:19:02;;;;;;;462.37;439.17;;;;;;;;;;5049917;28;20490;-61
2021/10/19 08:21:31;;;;;;;475.53;450.63;;;;;;;;;;5053120;28;20471;-62
2021/10/19 08:23:58;;;;;;;393.70;374.50;;;;;;;;;;5049700;28;20491;-62
2021/10/19 08:26:29;;;;;;;423.27;403.13;;;;;;;;;;5050984;28;20471;-62
2021/10/19 08:28:56;;;;;;;329.27;313.27;;;;;;;;;;5051238;28;20447;-62
2021/10/19 08:31:25;;;;;;;335.47;319.53;;;;;;;;;;5048131;28;20479;-62
2021/10/19 08:33:53;;;;;;;330.80;315.00;;;;;;;;;;5066199;28;20450;-62
2021/10/19 08:36:20;;;;;;;302.47;288.27;;;;;;;;;;5061336;28;20463;-62
2021/10/19 08:38:48;;;;;;;281.10;268.23;;;;;;;;;;5053929;28;20481;-61
2021/10/19 08:41:16;;;;;;;272.00;259.20;;;;;;;;;;5051266;28;20541;-61
2021/10/19 08:43:44;;;;;;;243.80;232.27;;;;;;;;;;5051975;28;20448;-62
2021/10/19 08:46:11;;;;;;;249.27;237.97;;;;;;;;;;5050432;28;20764;-62
2021/10/19 08:48:40;;;;;;;222.73;211.90;;;;;;;;;;5051729;28;20453;-61
2021/10/19 08:51:07;;;;;;;228.23;217.60;;;;;;;;;;5051608;28;20472;-62
2021/10/19 08:53:37;;;;;;;221.57;210.97;;;;;;;;;;5049353;28;20457;-62
2021/10/19 08:56:04;;;;;;;336.00;320.50;;;;;;;;;;5043986;28;20510;-63
2021/10/19 08:58:32;;;;;;;444.43;419.30;;;;;;;;;;5045879;28;20951;-64
2021/10/19 09:01:03;;;;;;;465.87;441.10;;;;;;;;;;5052306;28;20495;-64
2021/10/19 09:03:30;;;;;;;445.30;421.50;;;;;;;;;;5041443;28;20877;-64
2021/10/19 09:05:59;;;;;;;464.63;438.03;;;;;;;;;;5045602;28;20989;-64
2021/10/19 09:08:26;;;;;;;457.63;432.30;;;;;;;;;;5046667;28;20463;-64
2021/10/19 09:10:53;;;;;;;458.43;433.23;;;;;;;;;;5055141;28;20541;-63
2021/10/19 09:13:21;;;;;;;471.17;444.60;;;;;;;;;;5055774;28;20464;-66
2021/10/19 09:15:49;;;;;;;475.00;447.27;;;;;;;;;;5058282;28;20478;-65
2021/10/19 09:18:18;;;;;;;470.70;443.70;;;;;;;;;;5058521;28;20467;-65
2021/10/19 09:20:46;;;;;;;445.53;419.43;;;;;;;;;;5063945;28;20479;-65
2021/10/19 09:23:18;;;;;;;443.67;417.90;;;;;;;;;;5049157;28;20464;-65
2021/10/19 09:25:47;;;;;;;451.57;424.83;;;;;;;;;;5049839;28;20967;-65
2021/10/19 09:28:15;;;;;;;460.97;433.67;;;;;;;;;;5049875;28;20467;-65
2021/10/19 09:30:44;;;;;;;436.40;410.30;;;;;;;;;;5051309;28;20470;-65
2021/10/19 09:33:14;;;;;;;445.47;418.43;;;;;;;;;;5050946;28;20476;-65
2021/10/19 09:35:43;;;;;;;444.03;416.57;;;;;;;;;;5048991;28;20494;-65
2021/10/19 09:38:12;;;;;;;440.33;413.50;;;;;;;;;;5050190;28;20525;-65
2021/10/19 09:40:41;;;;;;;446.30;420.10;;;;;;;;;;5054455;28;20479;-66
2021/10/19 09:43:09;;;;;;;448.57;421.03;;;;;;;;;;5055966;28;20468;-65
2021/10/19 09:45:36;;;;;;;440.03;413.60;;;;;;;;;;5066204;28;20964;-66
2021/10/19 09:48:05;;;;;;;473.23;444.93;;;;;;;;;;5056912;28;20506;-70
2021/10/19 09:50:33;;;;;;;444.67;418.40;;;;;;;;;;5054043;28;20839;-69
2021/10/19 09:53:00;;;;;;;468.47;439.87;;;;;;;;;;5058555;28;20456;-72
2021/10/19 09:55:28;;;;;;;464.83;437.13;;;;;;;;;;5054150;28;20997;-72
2021/10/19 09:57:58;;;;;;;560.67;520.40;;;;;;;;;;5054441;28;20459;-72
2021/10/19 10:00:27;;;;;;;560.37;518.97;;;;;;;;;;5055464;28;20489;-72
2021/10/19 10:02:55;;;;;;;566.20;524.80;;;;;;;;;;5045979;28;20590;-72
2021/10/19 10:05:22;;;;;;;592.73;549.33;;;;;;;;;;5051301;28;20452;-70
2021/10/19 10:07:50;;;;;;;580.20;536.00;;;;;;;;;;5053973;28;20479;-70
2021/10/19 10:10:18;;;;;;;563.37;519.30;;;;;;;;;;5054577;28;20456;-70
2021/10/19 10:12:49;;;;;;;536.40;496.80;;;;;;;;;;5053796;28;20503;-70
2021/10/19 10:15:25;;;;;;;500.97;462.23;;;;;;;;;;5052111;28;20469;-70
2021/10/19 10:17:55;;;;;;;483.33;447.27;;;;;;;;;;5050165;28;20528;-69
2021/10/19 10:20:29;;;;;;;478.90;444.20;;;;;;;;;;5052124;28;20494;-69
2021/10/19 10:22:56;;;;;;;462.17;430.37;;;;;;;;;;5054273;28;20464;-70
2021/10/19 10:25:25;;;;;;;429.00;400.23;;;;;;;;;;5052537;28;20470;-69
2021/10/19 10:27:53;;;;;;;426.10;397.50;;;;;;;;;;5053279;28;21524;-69
2021/10/19 10:30:23;;;;;;;431.73;405.03;;;;;;;;;;5053054;28;20537;-69
2021/10/19 10:32:54;;;;;;;428.17;402.47;;;;;;;;;;5053405;28;20480;-69
2021/10/19 10:37:50;;;;;;;440.83;416.10;;;;;;;;;;5065841;22;20493;-71
2021/10/19 10:40:27;;;;;;;442.07;416.40;;;;;;;;;;5046967;28;20606;-70
2021/10/19 10:42:55;;;;;;;452.00;426.50;;;;;;;;;;5051170;28;20459;-68
2021/10/19 10:45:23;;;;;;;440.70;416.17;;;;;;;;;;5051997;28;20448;-68
2021/10/19 10:47:57;;;;;;;437.97;414.77;;;;;;;;;;5057270;28;20451;-70
2021/10/19 10:50:24;;;;;;;450.00;425.13;;;;;;;;;;5047936;28;20510;-70
2021/10/19 10:52:58;;;;;;;394.00;371.57;;;;;;;;;;5052146;28;20463;-69
2021/10/19 10:55:25;;;;;;;418.67;393.87;;;;;;;;;;5055736;28;20521;-70
2021/10/19 10:57:53;;;;;;;412.80;388.77;;;;;;;;;;5058810;28;20534;-70
2021/10/19 11:00:24;;;;;;;433.93;408.83;;;;;;;;;;5056713;28;20479;-69
2021/10/19 11:02:51;;;;;;;435.70;411.23;;;;;;;;;;5038816;28;20817;-70
2021/10/19 11:05:19;;;;;;;424.93;402.53;;;;;;;;;;5043961;28;20449;-68
2021/10/19 11:07:47;;;;;;;421.30;399.13;;;;;;;;;;5048011;28;20467;-70
2021/10/19 11:10:15;;;;;;;429.27;407.07;;;;;;;;;;5055369;28;20444;-70
2021/10/19 11:12:44;;;;;;;431.53;408.90;;;;;;;;;;5050209;28;20818;-70
2021/10/19 11:15:13;;;;;;;424.57;402.43;;;;;;;;;;5049539;28;20466;-72
2021/10/19 11:17:48;;;;;;;430.17;405.17;;;;;;;;;;5052769;28;20468;-72
2021/10/19 11:20:15;;;;;;;468.67;442.43;;;;;;;;;;5048041;28;21056;-72
2021/10/19 11:22:43;;;;;;;501.33;473.67;;;;;;;;;;5043135;28;20448;-72
2021/10/19 11:25:11;;;;;;;525.37;497.47;;;;;;;;;;5053012;28;20974;-71
2021/10/19 11:27:38;;;;;;;515.47;486.77;;;;;;;;;;5052684;28;20994;-72
2021/10/19 11:30:07;;;;;;;537.50;508.80;;;;;;;;;;5053149;28;20450;-72
2021/10/19 11:32:34;;;;;;;529.83;501.23;;;;;;;;;;5042147;28;20531;-72
2021/10/19 11:35:01;;;;;;;529.83;500.63;;;;;;;;;;5049517;28;20444;-72
2021/10/19 11:37:28;;;;;;;519.27;490.87;;;;;;;;;;5037681;28;20484;-72
2021/10/19 11:40:04;;;;;;;519.83;491.33;;;;;;;;;;5042271;28;20480;-71
2021/10/19 11:42:41;;;;;;;519.70;491.20;;;;;;;;;;5052979;28;20439;-71
2021/10/19 11:45:09;;;;;;;474.57;448.67;;;;;;;;;;5048852;28;20451;-72
2021/10/19 11:47:42;;;;;;;423.37;398.77;;;;;;;;;;5051821;28;20476;-72
2021/10/19 11:50:10;;;;;;;409.97;385.30;;;;;;;;;;5053163;28;20439;-71
2021/10/19 11:52:37;;;;;;;405.20;379.77;;;;;;;;;;5052926;28;20471;-71
2021/10/19 11:55:06;;;;;;;392.60;369.20;;;;;;;;;;5052804;28;20448;-72
2021/10/19 11:57:36;;;;;;;395.77;371.90;;;;;;;;;;5053331;28;20468;-69
2021/10/19 12:00:06;;;;;;;389.50;364.00;;;;;;;;;;5060599;28;20509;-71
2021/10/19 12:02:33;;;;;;;395.70;370.70;;;;;;;;;;5061965;28;20456;-71
2021/10/19 12:05:05;;;;;;;378.60;353.80;;;;;;;;;;5055628;28;20943;-72
2021/10/19 12:07:33;;;;;;;377.20;351.73;;;;;;;;;;5056539;28;20461;-74
2021/10/19 12:10:11;;;;;;;387.53;362.63;;;;;;;;;;5055598;28;20479;-71
2021/10/19 12:12:38;;;;;;;369.60;344.70;;;;;;;;;;5057727;28;20464;-71
2021/10/19 12:15:06;;;;;;;375.40;350.13;;;;;;;;;;5052667;28;20450;-70
2021/10/19 12:17:33;;;;;;;386.27;361.17;;;;;;;;;;5034732;28;20489;-72
2021/10/19 12:20:00;;;;;;;376.93;352.47;;;;;;;;;;5033931;28;20480;-72
2021/10/19 12:22:34;;;;;;;372.37;346.77;;;;;;;;;;5051567;28;20559;-73
2021/10/19 12:25:04;;;;;;;377.77;352.40;;;;;;;;;;5052821;28;20965;-70
2021/10/19 12:27:32;;;;;;;383.70;358.40;;;;;;;;;;5039909;28;20475;-71
2021/10/19 12:29:59;;;;;;;375.67;351.17;;;;;;;;;;5052821;28;20439;-70
2021/10/19 12:32:33;;;;;;;372.83;348.27;;;;;;;;;;5052644;28;20830;-72
2021/10/19 12:35:01;;;;;;;369.07;344.30;;;;;;;;;;5050932;28;20440;-71
2021/10/19 12:37:33;;;;;;;376.70;351.30;;;;;;;;;;5045801;28;20603;-71
2021/10/19 12:40:01;;;;;;;356.70;332.20;;;;;;;;;;5032552;28;21079;-72
2021/10/19 12:42:28;;;;;;;341.90;318.50;;;;;;;;;;5049738;28;20440;-71
2021/10/19 12:44:56;;;;;;;393.63;366.83;;;;;;;;;;5051596;28;20939;-68
2021/10/19 12:47:24;;;;;;;353.90;329.93;;;;;;;;;;5051895;28;20479;-75
2021/10/19 12:49:53;;;;;;;378.07;352.40;;;;;;;;;;5052662;28;20444;-75
2021/10/19 12:52:20;;;;;;;356.90;332.80;;;;;;;;;;5052095;28;20451;-74
2021/10/19 12:54:47;;;;;;;341.90;318.27;;;;;;;;;;5038043;28;20452;-73
2021/10/19 12:57:15;;;;;;;485.10;447.90;;;;;;;;;;5031593;28;20987;-74
2021/10/19 12:59:42;;;;;;;469.90;436.20;;;;;;;;;;5031939;28;20444;-73
2021/10/19 13:02:10;;;;;;;448.67;414.43;;;;;;;;;;5031432;28;20487;-73
2021/10/19 13:04:37;;;;;;;465.53;431.67;;;;;;;;;;5031711;28;20463;-74
2021/10/19 13:07:04;;;;;;;474.60;440.87;;;;;;;;;;5033945;28;20991;-74
2021/10/19 13:09:31;;;;;;;466.50;432.90;;;;;;;;;;5051636;28;20456;-73
2021/10/19 13:11:59;;;;;;;469.13;435.37;;;;;;;;;;5052383;28;20942;-72
2021/10/19 13:14:27;;;;;;;472.47;437.50;;;;;;;;;;5051744;28;20962;-73
2021/10/19 13:16:54;;;;;;;460.17;426.13;;;;;;;;;;5051583;28;20490;-74
2021/10/19 13:19:23;;;;;;;463.33;428.60;;;;;;;;;;5051733;28;20451;-72
2021/10/19 13:21:50;;;;;;;460.10;425.80;;;;;;;;;;5049605;28;20483;-73
2021/10/19 13:24:17;;;;;;;457.33;423.53;;;;;;;;;;5050813;28;20462;-74
2021/10/19 13:26:44;;;;;;;461.53;428.23;;;;;;;;;;5051109;28;20467;-74
2021/10/19 13:29:11;;;;;;;453.03;419.87;;;;;;;;;;5053802;28;20451;-74
2021/10/19 13:31:39;;;;;;;447.03;414.87;;;;;;;;;;5055184;28;20450;-73
2021/10/19 13:34:07;;;;;;;428.97;398.37;;;;;;;;;;5055314;28;21068;-74
2021/10/19 13:36:35;;;;;;;429.43;397.53;;;;;;;;;;5053685;28;20479;-74
2021/10/19 13:39:03;;;;;;;422.87;392.20;;;;;;;;;;5049941;28;20449;-74
2021/10/19 13:41:31;;;;;;;422.07;391.27;;;;;;;;;;5049020;28;20480;-74
2021/10/19 13:43:58;;;;;;;407.27;377.73;;;;;;;;;;5036163;28;20463;-74
2021/10/19 13:46:25;;;;;;;407.50;377.93;;;;;;;;;;5036241;28;20485;-74
2021/10/19 13:48:52;;;;;;;391.40;363.37;;;;;;;;;;5035658;28;20454;-74
2021/10/19 13:51:20;;;;;;;400.57;371.07;;;;;;;;;;5035624;28;20452;-75
2021/10/19 13:53:48;;;;;;;381.13;353.87;;;;;;;;;;5035302;28;20448;-74
2021/10/19 13:56:15;;;;;;;392.00;363.77;;;;;;;;;;5034981;28;20980;-74
2021/10/19 13:58:42;;;;;;;385.10;356.80;;;;;;;;;;5036572;28;20985;-75